Terminal Aerodrome Forecast
Issued by NWS

Home | Current Version | Previous Version | Text Only | Print | Product List | Glossary On
Versions: 1 2 3 4 5 6 7 8 9 10 11 12 13 14 15 16 17 18
000
FTUS46 KMFR 191700 RRA
TAFOTH
TAF
KOTH 191744Z 1918/2018 33008KT P6SM SKC
     FM192100 36019G28KT P6SM SKC
     FM200400 01012KT P6SM SKC
     FM201000 01004KT P6SM SKC=

USA.gov is the U.S. government's official web portal to all federal, state and local government web resources and services.